createdAt,value
2022-07-26T00:01:31.824Z,99955.31
2022-07-26T00:04:04.409Z,99958.81
2022-07-26T00:06:34.935Z,99967.44
2022-07-26T00:09:06.281Z,99977.69
2022-07-26T00:11:37.041Z,99986.88
2022-07-26T00:14:10.170Z,99977.66
2022-07-26T00:16:40.579Z,99973.78
2022-07-26T00:19:10.415Z,99980.56
2022-07-26T00:21:41.042Z,99971.81
2022-07-26T00:24:12.077Z,99981.31
2022-07-26T00:26:42.537Z,99979.13
2022-07-26T00:29:12.919Z,99978.28
2022-07-26T00:31:44.223Z,99971.47
2022-07-26T00:34:14.626Z,99971.69
2022-07-26T00:36:45.780Z,99977.59
2022-07-26T00:39:16.239Z,99968.59
2022-07-26T00:41:46.443Z,99980.22
2022-07-26T00:44:18.538Z,99981.84
2022-07-26T00:46:50.386Z,99977.69
2022-07-26T00:49:21.566Z,99967.06
2022-07-26T00:51:57.171Z,99964.31
2022-07-26T00:54:32.571Z,99955.31
2022-07-26T00:57:03.300Z,99960.94
2022-07-26T00:59:34.036Z,99957.03
2022-07-26T01:02:06.044Z,99948.53
2022-07-26T01:04:38.274Z,99954.72
2022-07-26T01:07:14.775Z,99954.66
2022-07-26T01:13:06.135Z,99955.13
2022-07-26T01:15:52.747Z,99959.34
2022-07-26T01:18:23.046Z,99966.94
2022-07-26T01:21:13.123Z,99966.34
2022-07-26T01:23:54.883Z,99969.56
2022-07-26T01:26:25.671Z,99969.50
2022-07-26T01:28:56.171Z,99964.06
2022-07-26T01:31:26.510Z,99973.84
2022-07-26T01:33:57.951Z,99977.88
2022-07-26T01:37:13.317Z,99974.88
2022-07-26T01:39:50.104Z,99994.34
2022-07-26T01:42:21.106Z,99980.97
2022-07-26T01:44:54.487Z,99991.50
2022-07-26T01:47:25.309Z,99988.34
2022-07-26T01:49:54.976Z,99990.69
2022-07-26T01:52:25.034Z,99991.13
2022-07-26T01:54:55.287Z,99991.09
2022-07-26T01:57:25.437Z,99996.75
2022-07-26T01:59:57.058Z,99994.75
2022-07-26T02:02:27.746Z,99992.75
2022-07-26T02:05:01.691Z,99990.25
2022-07-26T02:07:34.915Z,99986.94
2022-07-26T02:10:10.135Z,99978.75
2022-07-26T02:12:43.627Z,99982.00
2022-07-26T02:15:16.079Z,99983.63
2022-07-26T02:17:47.032Z,99983.28
2022-07-26T02:20:18.711Z,99986.25
2022-07-26T02:22:49.824Z,99976.25
2022-07-26T02:25:23.681Z,99982.69
2022-07-26T02:27:56.226Z,99999.03
2022-07-26T02:30:27.131Z,99972.84
2022-07-26T02:32:59.789Z,99979.59
2022-07-26T02:35:32.868Z,99973.66
2022-07-26T02:38:11.583Z,99975.69
2022-07-26T02:40:43.411Z,99975.09
2022-07-26T02:43:14.205Z,99982.66
2022-07-26T02:45:44.433Z,99986.19
2022-07-26T02:48:33.083Z,99970.88
2022-07-26T02:51:04.265Z,99976.53
2022-07-26T02:53:34.601Z,99974.03
2022-07-26T02:56:06.407Z,99966.66
2022-07-26T02:58:43.102Z,99969.31
2022-07-26T03:01:15.893Z,99971.44
2022-07-26T03:03:51.081Z,99980.09
2022-07-26T03:06:22.837Z,99964.25
2022-07-26T03:08:53.480Z,99956.59
2022-07-26T03:11:23.798Z,99956.78
2022-07-26T03:13:54.346Z,99958.63
2022-07-26T03:16:28.948Z,99955.91
2022-07-26T03:19:00.118Z,99956.41
2022-07-26T03:21:32.683Z,99943.38
2022-07-26T03:24:03.646Z,99945.59
2022-07-26T03:27:40.200Z,99942.88
2022-07-26T03:34:04.142Z,99938.53
2022-07-26T03:36:43.282Z,99940.03
2022-07-26T03:39:14.320Z,99932.38
2022-07-26T03:41:46.318Z,99921.97
2022-07-26T03:44:17.387Z,99930.97
2022-07-26T03:46:48.669Z,99924.19
2022-07-26T03:49:19.681Z,99921.97
2022-07-26T03:51:50.570Z,99921.66
2022-07-26T03:54:20.920Z,99917.84
2022-07-26T03:56:52.343Z,99918.84
2022-07-26T03:59:22.861Z,99909.25
2022-07-26T04:01:53.670Z,99907.53
2022-07-26T04:04:25.416Z,99899.84
2022-07-26T04:07:03.808Z,99894.91
2022-07-26T04:09:34.646Z,99896.22
2022-07-26T04:12:05.199Z,99890.97
2022-07-26T04:14:36.548Z,99887.09
2022-07-26T04:17:07.137Z,99883.88
2022-07-26T04:19:39.757Z,99878.94
2022-07-26T04:22:10.217Z,99884.94
2022-07-26T04:24:40.691Z,99874.53
2022-07-26T04:27:11.072Z,99863.00
2022-07-26T04:29:42.188Z,99864.00
2022-07-26T04:32:12.605Z,99859.53
2022-07-26T04:34:43.195Z,99860.56
2022-07-26T04:37:13.752Z,99845.47
2022-07-26T04:39:54.748Z,99841.31
2022-07-26T04:42:28.357Z,99838.16
2022-07-26T04:45:03.116Z,99839.97
2022-07-26T04:47:37.035Z,99826.81
2022-07-26T04:50:08.444Z,99818.81
2022-07-26T04:52:40.353Z,99820.63
2022-07-26T04:55:18.965Z,99822.72
2022-07-26T04:57:52.930Z,99822.09
2022-07-26T05:00:26.493Z,99817.66
2022-07-26T05:03:00.385Z,99813.50
2022-07-26T05:05:34.173Z,99816.13
2022-07-26T05:08:08.403Z,99822.38
2022-07-26T05:10:39.990Z,99825.59
2022-07-26T05:13:10.685Z,99820.13
2022-07-26T05:15:42.826Z,99817.41
2022-07-26T05:18:13.839Z,99810.03
2022-07-26T05:20:44.750Z,99813.75
2022-07-26T05:23:16.176Z,99814.72
2022-07-26T05:25:50.265Z,99809.78
2022-07-26T05:28:35.721Z,99814.59
2022-07-26T05:31:08.317Z,99806.56
2022-07-26T05:33:39.984Z,99805.16
2022-07-26T05:36:11.003Z,99808.84
2022-07-26T05:38:45.278Z,99798.91
2022-07-26T05:41:16.215Z,99792.50
2022-07-26T05:43:47.320Z,99781.94
2022-07-26T05:46:18.108Z,99780.16
2022-07-26T05:48:49.808Z,99774.41
2022-07-26T05:51:20.904Z,99784.84
2022-07-26T05:53:53.434Z,99779.06
2022-07-26T05:56:24.768Z,99771.97
2022-07-26T05:58:57.781Z,99780.16
2022-07-26T06:01:29.353Z,99777.66
2022-07-26T06:04:02.651Z,99773.50
2022-07-26T06:06:33.243Z,99770.44
2022-07-26T06:09:04.086Z,99767.88
2022-07-26T06:11:34.600Z,99763.69
2022-07-26T06:14:05.431Z,99763.88
2022-07-26T06:16:37.058Z,99767.72
2022-07-26T06:19:08.699Z,99755.34
2022-07-26T06:21:39.416Z,99761.31
2022-07-26T06:24:11.223Z,99760.50
2022-07-26T06:26:42.665Z,99753.44
2022-07-26T06:29:14.777Z,99756.97
2022-07-26T06:31:45.583Z,99744.13
2022-07-26T06:34:18.024Z,99738.66
2022-07-26T06:36:49.237Z,99724.84
2022-07-26T06:39:20.734Z,99719.22
2022-07-26T06:41:54.923Z,99716.34
2022-07-26T06:44:33.283Z,99711.19
2022-07-26T06:47:04.652Z,99713.44
2022-07-26T06:49:36.735Z,99702.03
2022-07-26T06:52:11.802Z,99712.50
2022-07-26T06:54:43.005Z,99695.28
2022-07-26T06:57:14.036Z,99698.97
2022-07-26T06:59:45.189Z,99694.94
2022-07-26T07:02:16.259Z,99689.63
2022-07-26T07:04:48.019Z,99684.16
2022-07-26T07:07:18.779Z,99687.00
2022-07-26T07:09:49.331Z,99687.84
2022-07-26T07:12:20.208Z,99698.13
2022-07-26T07:14:51.377Z,99703.44
2022-07-26T07:17:22.612Z,99705.53
2022-07-26T07:19:54.080Z,99705.22
2022-07-26T07:22:24.329Z,99698.31
2022-07-26T07:24:54.562Z,99697.34
2022-07-26T07:27:24.648Z,99691.91
2022-07-26T07:29:57.421Z,99699.78
2022-07-26T07:32:28.523Z,99707.00
2022-07-26T07:34:58.832Z,99710.69
2022-07-26T07:37:52.368Z,99720.97
2022-07-26T07:40:19.232Z,99726.44
2022-07-26T07:42:49.396Z,99733.00
2022-07-26T07:45:20.016Z,99744.06
2022-07-26T07:47:50.544Z,99757.53
2022-07-26T07:50:20.653Z,99750.31
2022-07-26T07:52:51.224Z,99753.66
2022-07-26T07:55:36.562Z,99745.63
2022-07-26T07:58:11.160Z,99739.00
2022-07-26T08:00:42.317Z,99735.44
2022-07-26T08:03:13.153Z,99734.16
2022-07-26T08:05:50.941Z,99739.28
2022-07-26T08:08:23.413Z,99738.97
2022-07-26T08:10:54.890Z,99737.06
2022-07-26T08:13:29.346Z,99741.69
2022-07-26T08:15:59.548Z,99746.72
2022-07-26T08:18:31.118Z,99755.28
2022-07-26T08:21:01.717Z,99749.59
2022-07-26T08:23:31.341Z,99765.09
2022-07-26T08:26:06.293Z,99774.03
2022-07-26T08:28:47.511Z,99777.47
2022-07-26T08:31:21.306Z,99773.75
2022-07-26T08:33:51.567Z,99776.59
2022-07-26T08:36:21.708Z,99778.31
2022-07-26T08:38:52.592Z,99782.75
2022-07-26T08:41:24.410Z,99776.63
2022-07-26T08:43:54.689Z,99779.47
2022-07-26T08:46:27.515Z,99785.22
2022-07-26T08:49:22.656Z,99791.28
2022-07-26T08:56:27.455Z,99793.13
2022-07-26T08:59:48.053Z,99789.50
2022-07-26T09:02:18.910Z,99801.84
2022-07-26T09:04:57.558Z,99792.03
2022-07-26T09:07:39.944Z,99784.16
2022-07-26T09:10:19.001Z,99779.59
2022-07-26T09:13:01.745Z,99782.59
2022-07-26T09:16:45.930Z,99775.44
2022-07-26T09:19:51.952Z,99777.03
2022-07-26T09:23:25.909Z,99773.09
2022-07-26T09:30:22.565Z,99770.22
2022-07-26T09:35:51.354Z,99772.59
2022-07-26T09:37:53.225Z,99768.78
2022-07-26T09:45:12.716Z,99772.91
2022-07-26T09:48:08.572Z,99780.81
2022-07-26T10:05:00.052Z,99803.63
2022-07-26T10:11:23.383Z,99797.38
2022-07-26T10:14:00.582Z,99797.25
2022-07-26T10:16:33.190Z,99817.25
2022-07-26T10:19:47.628Z,99816.72
2022-07-26T10:22:46.087Z,99818.94
2022-07-26T10:26:26.066Z,99813.78
2022-07-26T10:30:14.552Z,99811.06
2022-07-26T10:44:38.007Z,99811.53
2022-07-26T10:48:48.309Z,99812.72
2022-07-26T10:51:37.657Z,99821.47
2022-07-26T10:57:49.458Z,99828.13
2022-07-26T11:07:30.451Z,99828.00
2022-07-26T11:10:53.442Z,99831.00
2022-07-26T11:14:18.479Z,99839.75
2022-07-26T11:17:48.417Z,99848.53
2022-07-26T11:24:52.551Z,99859.19
2022-07-26T11:28:16.134Z,99856.25
2022-07-26T11:42:59.939Z,99851.78
2022-07-26T11:50:16.818Z,99867.38
2022-07-26T11:54:36.626Z,99870.66
2022-07-26T11:57:40.870Z,99875.84
2022-07-26T12:00:52.123Z,99872.91
2022-07-26T12:04:04.760Z,99871.28
2022-07-26T12:07:23.226Z,99876.22
2022-07-26T12:10:07.973Z,99872.78
2022-07-26T12:12:38.673Z,99882.63
2022-07-26T12:15:13.101Z,99871.22
2022-07-26T12:18:01.923Z,99885.13
2022-07-26T12:20:32.672Z,99878.06
2022-07-26T12:23:07.549Z,99872.09
2022-07-26T12:25:45.088Z,99871.28
2022-07-26T12:28:39.810Z,99883.56
2022-07-26T12:31:26.125Z,99885.47
2022-07-26T12:33:57.221Z,99892.56
2022-07-26T12:36:31.051Z,99903.75
2022-07-26T12:39:02.703Z,99906.53
2022-07-26T12:41:41.153Z,99907.63
2022-07-26T12:44:14.993Z,99916.63
2022-07-26T12:46:46.772Z,99922.66
2022-07-26T12:49:17.825Z,99913.19
2022-07-26T12:51:52.828Z,99921.63
2022-07-26T12:54:29.167Z,99917.88
2022-07-26T12:57:01.907Z,99913.53
2022-07-26T12:59:33.288Z,99925.25
2022-07-26T13:02:04.759Z,99923.31
2022-07-26T13:04:36.122Z,99933.38
2022-07-26T13:07:08.849Z,99924.72
2022-07-26T13:09:42.944Z,99925.81
2022-07-26T13:12:14.954Z,99919.88
2022-07-26T13:14:48.741Z,99919.06
2022-07-26T13:17:19.731Z,99928.59
2022-07-26T13:19:53.380Z,99924.38
2022-07-26T13:22:27.350Z,99927.13
2022-07-26T13:24:59.213Z,99922.25
2022-07-26T13:27:36.034Z,99916.03
2022-07-26T13:30:09.982Z,99917.91
2022-07-26T13:32:40.876Z,99921.47
2022-07-26T13:35:16.140Z,99921.47
2022-07-26T13:37:54.234Z,99922.56
2022-07-26T13:40:31.033Z,99914.41
2022-07-26T13:43:03.613Z,99912.81
2022-07-26T13:45:35.432Z,99914.22
2022-07-26T13:48:07.234Z,99925.53
2022-07-26T13:50:38.913Z,99918.84
2022-07-26T13:53:10.629Z,99917.91
2022-07-26T13:55:42.177Z,99924.81
2022-07-26T14:02:25.036Z,99933.88
2022-07-26T14:06:04.177Z,99936.63
2022-07-26T14:09:40.487Z,99952.34
2022-07-26T14:13:08.480Z,99951.84
2022-07-26T14:16:19.166Z,99953.47
2022-07-26T14:19:37.433Z,99936.97
2022-07-26T14:26:46.930Z,99938.88
2022-07-26T14:29:45.316Z,99914.75
2022-07-26T14:32:43.816Z,99913.41
2022-07-26T14:39:35.970Z,99903.41
2022-07-26T14:43:15.301Z,99918.03
2022-07-26T14:48:54.787Z,99905.59
2022-07-26T14:52:10.752Z,99909.09
2022-07-26T14:55:09.386Z,99908.56
2022-07-26T15:01:13.246Z,99915.06
2022-07-26T15:07:12.656Z,99913.19
2022-07-26T15:16:45.873Z,99902.06
2022-07-26T15:22:50.669Z,99893.91
2022-07-26T15:25:57.257Z,99900.69
2022-07-26T15:29:07.446Z,99912.06
2022-07-26T15:32:18.870Z,99925.84
2022-07-26T15:43:48.512Z,99898.75
2022-07-26T15:49:41.054Z,99908.28
2022-07-26T15:53:02.390Z,99925.91
2022-07-26T15:58:55.889Z,99976.88
2022-07-26T16:02:24.599Z,99992.09
2022-07-26T16:05:20.044Z,99998.00
2022-07-26T16:09:15.294Z,100000.03
2022-07-26T16:12:06.358Z,99985.75
2022-07-26T16:14:56.040Z,99970.88
2022-07-26T16:18:42.053Z,99974.53
2022-07-26T16:24:46.508Z,99950.69
2022-07-26T16:31:40.329Z,99978.25
2022-07-26T16:34:44.163Z,99999.34
2022-07-26T16:37:41.973Z,99998.50
2022-07-26T16:40:57.943Z,100010.00
2022-07-26T16:43:54.528Z,100015.72
2022-07-26T16:50:27.265Z,100063.00
2022-07-26T16:53:13.235Z,100067.66
2022-07-26T16:55:55.834Z,100071.97
2022-07-26T16:58:36.805Z,100060.97
2022-07-26T17:01:38.611Z,100039.28
2022-07-26T17:04:15.828Z,100027.41
2022-07-26T17:07:07.829Z,100029.00
2022-07-26T17:09:37.682Z,100007.81
2022-07-26T17:12:08.422Z,99989.41
2022-07-26T17:14:38.741Z,99978.81
2022-07-26T17:17:09.301Z,99975.25
2022-07-26T17:19:39.946Z,99978.13
2022-07-26T17:22:10.406Z,99969.75
2022-07-26T17:24:41.332Z,99949.19
2022-07-26T17:27:12.252Z,99959.47
2022-07-26T17:29:42.722Z,99954.41
2022-07-26T17:32:13.479Z,99967.50
2022-07-26T17:34:43.655Z,99959.81
2022-07-26T17:37:14.854Z,99962.31
2022-07-26T17:39:51.877Z,99954.88
2022-07-26T17:42:24.001Z,99968.69
2022-07-26T17:44:55.212Z,99972.75
2022-07-26T17:47:29.022Z,100000.78
2022-07-26T17:52:54.555Z,99999.81
2022-07-26T17:55:24.194Z,100006.06
2022-07-26T17:57:54.580Z,100009.06
2022-07-26T18:00:29.625Z,100015.28
2022-07-26T18:03:00.639Z,100021.50
2022-07-26T18:05:35.130Z,100013.34
2022-07-26T18:08:08.817Z,100024.59
2022-07-26T18:10:39.133Z,100016.44
2022-07-26T18:13:09.452Z,100004.31
2022-07-26T18:15:39.778Z,100001.53
2022-07-26T18:18:10.317Z,100004.47
2022-07-26T18:20:41.239Z,100011.06
2022-07-26T18:23:11.736Z,100002.94
2022-07-26T18:25:42.140Z,99992.91
2022-07-26T18:28:12.970Z,99993.63
2022-07-26T18:30:43.527Z,99982.56
2022-07-26T18:33:15.638Z,99987.94
2022-07-26T18:35:49.669Z,99987.69
2022-07-26T18:38:19.916Z,99983.72
2022-07-26T18:40:50.126Z,99991.03
2022-07-26T18:43:20.253Z,99979.28
2022-07-26T18:45:50.678Z,99956.94
2022-07-26T18:48:25.613Z,99948.38
2022-07-26T18:50:58.912Z,99928.72
2022-07-26T18:53:29.498Z,99920.72
2022-07-26T18:55:59.088Z,99910.78
2022-07-26T18:58:30.016Z,99902.94
2022-07-26T19:01:00.973Z,99906.50
2022-07-26T19:03:36.462Z,99916.06
2022-07-26T19:06:07.794Z,99908.84
2022-07-26T19:08:38.371Z,99911.38
2022-07-26T19:11:08.577Z,99909.53
2022-07-26T19:13:39.863Z,99910.09
2022-07-26T19:16:10.522Z,99914.44
2022-07-26T19:18:40.924Z,99915.56
2022-07-26T19:21:19.462Z,99925.81
2022-07-26T19:23:49.830Z,99927.75
2022-07-26T19:26:19.923Z,99942.59
2022-07-26T19:28:50.086Z,99932.16
2022-07-26T19:33:47.992Z,99933.53
2022-07-26T19:36:25.446Z,99927.66
2022-07-26T19:38:58.731Z,99927.66
2022-07-26T19:41:29.057Z,99928.22
2022-07-26T19:44:00.148Z,99935.78
2022-07-26T19:46:30.719Z,99931.50
2022-07-26T19:49:01.031Z,99932.28
2022-07-26T19:51:31.512Z,99925.50
2022-07-26T19:54:01.505Z,99915.81
2022-07-26T19:56:31.472Z,99909.88
2022-07-26T19:59:02.026Z,99913.38
2022-07-26T20:01:32.741Z,99924.16
2022-07-26T20:04:04.258Z,99932.22
2022-07-26T20:06:33.999Z,99937.38
2022-07-26T20:09:04.177Z,99946.50
2022-07-26T20:11:36.412Z,99943.25
2022-07-26T20:14:07.027Z,99944.63
2022-07-26T20:16:37.895Z,99942.75
2022-07-26T20:19:08.681Z,99944.63
2022-07-26T20:21:39.729Z,99951.66
2022-07-26T20:24:10.202Z,99948.69
2022-07-26T20:26:40.168Z,99957.34
2022-07-26T20:29:12.543Z,99957.34
2022-07-26T20:31:42.925Z,99963.03
2022-07-26T20:34:13.412Z,99976.50
2022-07-26T20:36:43.707Z,99971.91
2022-07-26T20:39:14.059Z,99971.91
2022-07-26T20:41:44.542Z,99958.72
2022-07-26T20:44:14.549Z,99949.63
2022-07-26T20:46:44.804Z,99947.75
2022-07-26T20:49:15.680Z,99942.34
2022-07-26T20:51:46.587Z,99939.41
2022-07-26T20:54:16.606Z,99926.19
2022-07-26T20:56:47.610Z,99921.38
2022-07-26T20:59:18.118Z,99931.06
2022-07-26T21:01:48.542Z,99927.81
2022-07-26T21:04:18.666Z,99938.59
2022-07-26T21:06:48.901Z,99930.53
2022-07-26T21:09:19.783Z,99926.50
2022-07-26T21:11:52.399Z,99920.31
2022-07-26T21:14:23.026Z,99928.94
2022-07-26T21:16:53.353Z,99936.22
2022-07-26T21:19:23.637Z,99942.94
2022-07-26T21:21:56.007Z,99944.25
2022-07-26T21:24:26.604Z,99941.53
2022-07-26T21:26:56.909Z,99952.63
2022-07-26T21:29:28.352Z,99955.56
2022-07-26T21:31:59.477Z,99961.28
2022-07-26T21:34:29.888Z,99975.28
2022-07-26T21:36:59.850Z,99975.28
2022-07-26T21:39:29.913Z,99979.88
2022-07-26T21:42:00.396Z,99985.03
2022-07-26T21:44:30.470Z,99981.22
2022-07-26T21:47:00.635Z,100001.75
2022-07-26T21:49:30.623Z,100005.81
2022-07-26T21:52:01.015Z,100013.91
2022-07-26T21:54:30.919Z,100013.06
2022-07-26T21:57:00.747Z,100015.53
2022-07-26T21:59:30.769Z,100015.53
2022-07-26T22:02:02.110Z,100020.09
2022-07-26T22:04:33.041Z,100024.44
2022-07-26T22:07:03.291Z,100035.78
2022-07-26T22:09:37.287Z,100029.81
2022-07-26T22:12:07.883Z,100030.63
2022-07-26T22:14:38.564Z,100032.84
2022-07-26T22:17:08.500Z,100037.13
2022-07-26T22:19:38.560Z,100045.78
2022-07-26T22:22:07.968Z,100043.91
2022-07-26T22:24:37.939Z,100046.34
2022-07-26T22:27:08.103Z,100059.56
2022-07-26T22:29:39.743Z,100066.09
2022-07-26T22:32:10.462Z,100055.88
2022-07-26T22:34:40.439Z,100070.41
2022-07-26T22:37:10.475Z,100056.94
2022-07-26T22:39:40.476Z,100065.34
2022-07-26T22:42:16.938Z,100072.66
2022-07-26T22:44:47.343Z,100074.31
2022-07-26T22:47:18.036Z,100082.97
2022-07-26T22:49:48.509Z,100075.94
2022-07-26T22:52:18.966Z,100081.88
2022-07-26T22:54:49.497Z,100075.44
2022-07-26T22:57:19.621Z,100082.44
2022-07-26T22:59:50.542Z,100081.94
2022-07-26T23:02:21.323Z,100084.38
2022-07-26T23:04:53.333Z,100088.97
2022-07-26T23:07:24.524Z,100091.09
2022-07-26T23:09:55.188Z,100090.03
2022-07-26T23:12:25.867Z,100092.72
2022-07-26T23:14:57.417Z,100090.28
2022-07-26T23:17:28.266Z,100086.53
2022-07-26T23:19:58.659Z,100077.38
2022-07-26T23:22:28.639Z,100079.78
2022-07-26T23:24:58.812Z,100082.00
2022-07-26T23:27:28.970Z,100082.00
2022-07-26T23:29:59.651Z,100083.63
2022-07-26T23:32:29.752Z,100090.41
2022-07-26T23:34:59.824Z,100088.03
2022-07-26T23:37:30.403Z,100091.03
2022-07-26T23:40:00.474Z,100082.69
2022-07-26T23:42:30.460Z,100089.72
2022-07-26T23:45:00.424Z,100081.09
2022-07-26T23:47:30.429Z,100094.09
2022-07-26T23:50:00.462Z,100098.44
2022-07-26T23:52:30.488Z,100098.97
2022-07-26T23:55:00.534Z,100100.63
2022-07-26T23:57:29.914Z,100095.78
2022-07-26T23:59:59.878Z,100089.88
